ISABELLA DAM (ISB)

Elevation: 2635' · KERN R basin · Operator: US Army Corps of Engineers

Provisional data, subject to change.
Query executed Saturday at 9:56:06   clock

Select a sensor type for a plot of data.
Note: Reservoir Flows are daily averages.

Earlier

Date RES ELE    STORAGE    RES CHG    TOC STO    ABV TOC    OUTFLOW    INFLOW    FNF    PPT INC    PPTINC4    TEMP MN    TEMP MX    WINDLEN    EVP PAN   
 FEET   AF   AF   AF   AF   CFS   CFS   CFS   INCHES   INCHES   DEG F   DEG F   MILES   INCHES  
06/05/2015 2528.84 43204 -137 361250 -318046 328 282 282 0.00 0.00 12 29 140 0.33
06/06/2015 2528.79 43090 -114 361250 -318160 317 281 281 0.00 0.00 15 30 127 0.31
06/07/2015 2528.73 42953 -137 361250 -318297 308 263 263 0.00 0.00 15 35 106 0.35
06/08/2015 2528.66 42793 -160 361250 -318457 301 248 248 0.02 0.00 17 38 140 0.41
06/09/2015 2528.58 42612 -181 361250 -318638 311 231 231 0.00 0.00 20 28 106 0.16
06/10/2015 2528.49 42408 -204 361250 -318842 312 234 234 0.00 0.00 18 29 223 0.37
06/11/2015 2528.42 42251 -157 361250 -318999 304 249 249 0.00 0.00 18 32 167 0.36
06/12/2015 2528.38 42161 -90 361250 -319089 315 287 287 0.11 0.00 19 35 107 0.26
06/13/2015 2528.32 42026 -135 361250 -319224 321 278 278 0.12 0.11 17 37 125 0.37
06/14/2015 2528.24 41847 -179 361250 -319403 331 268 268 0.00 0.12 21 38 144 0.41
06/15/2015 2528.17 41691 -156 361250 -319559 338 287 287 0.00 0.00 20 37 141 0.41
06/16/2015 2528.11 41557 -134 361250 -319693 325 285 285 0.00 0.00 19 36 150 0.42
06/17/2015 2528.02 41357 -200 361250 -319893 317 243 243 0.00 0.00 18 37 133 0.40
06/18/2015 2527.91 41114 -243 361250 -320136 308 214 214 0.00 0.00 22 36 147 0.42
06/19/2015 2527.76 40784 -330 361250 -320466 313 178 178 0.00 0.00 20 35 240 0.48
06/20/2015 2527.58 40391 -393 361250 -320859 361 192 192 0.00 0.00 21 37 164 0.44
06/21/2015 2527.32 39828 -563 361250 -- 422 168 168 0.00 0.00 20 36 191 0.45
06/22/2015 2527.06 39271 -557 361250 -321979 394 142 142 0.00 0.00 19 33 215 0.45
06/23/2015 2526.86 38846 -425 361250 -322404 336 147 147 0.00 0.00 20 34 151 0.40
06/24/2015 2526.68 38467 -379 361250 -322783 330 164 164 0.00 0.00 18 37 114 0.38
06/25/2015 2526.49 38069 -398 361250 -323181 324 148 148 0.01 0.00 18 41 98 0.39
06/26/2015 2526.30 37675 -394 361250 -- 316 143 143 0.00 0.00 19 42 123 0.41
06/27/2015 2526.10 37263 -412 361250 -- 312 126 126 0.00 0.00 22 39 136 0.36
06/28/2015 2525.91 36875 -388 361250 -- 303 126 126 0.00 0.00 25 35 153 0.30
06/29/2015 2525.73 36510 -365 361250 -324740 299 135 135 0.00 0.00 25 38 134 0.32
06/30/2015 2525.55 36147 -363 361250 -325103 290 132 132 0.00 0.00 22 41 120 0.38
07/01/2015 2525.40 35848 -299 361250 -325402 292 158 -- 0.00 0.00 21 35 163 0.26
07/02/2015 2525.27 35589 -259 361250 -325661 279 171 -- 0.06 0.00 24 38 146 0.35
07/03/2015 2525.37 35788 199 361250 -325462 236 362 -- 0.00 0.06 22 39 128 0.40
07/04/2015 -- -- -- -- -- -- -- -- -- 0.00 -- -- -- --

Later | Latest

Warning! This data is preliminary and subject to revision.

Show ISB Map | Plot ISB Data | 1 Month ISB Data | Real-Time ISB Data | ISB Info